sensor_id;sensor_type;location;lat;lon;timestamp;pressure;altitude;pressure_sealevel;temperature
70417;BMP280;57839;51.332;12.410;2023-12-04T00:00:24;100751.16;;;-1.87
70417;BMP280;57839;51.332;12.410;2023-12-04T00:02:50;100757.00;;;-1.85
70417;BMP280;57839;51.332;12.410;2023-12-04T00:05:16;100746.69;;;-1.86
70417;BMP280;57839;51.332;12.410;2023-12-04T00:07:41;100751.44;;;-1.88
70417;BMP280;57839;51.332;12.410;2023-12-04T00:10:07;100741.72;;;-1.88
70417;BMP280;57839;51.332;12.410;2023-12-04T00:12:33;100746.16;;;-1.88
70417;BMP280;57839;51.332;12.410;2023-12-04T00:14:59;100748.00;;;-1.89
70417;BMP280;57839;51.332;12.410;2023-12-04T00:17:25;100743.28;;;-1.92
70417;BMP280;57839;51.332;12.410;2023-12-04T00:19:50;100739.84;;;-1.92
70417;BMP280;57839;51.332;12.410;2023-12-04T00:22:16;100745.91;;;-1.92
70417;BMP280;57839;51.332;12.410;2023-12-04T00:24:42;100743.28;;;-1.92
70417;BMP280;57839;51.332;12.410;2023-12-04T00:27:08;100748.53;;;-1.92
70417;BMP280;57839;51.332;12.410;2023-12-04T00:29:33;100738.53;;;-1.95
70417;BMP280;57839;51.332;12.410;2023-12-04T00:31:59;100730.41;;;-1.93
70417;BMP280;57839;51.332;12.410;2023-12-04T00:34:24;100734.59;;;-1.92
70417;BMP280;57839;51.332;12.410;2023-12-04T00:36:50;100733.28;;;-1.90
70417;BMP280;57839;51.332;12.410;2023-12-04T00:39:15;100742.50;;;-1.87
70417;BMP280;57839;51.332;12.410;2023-12-04T00:41:41;100752.22;;;-1.88
70417;BMP280;57839;51.332;12.410;2023-12-04T00:44:08;100740.13;;;-1.89
70417;BMP280;57839;51.332;12.410;2023-12-04T00:46:33;100743.53;;;-1.88
70417;BMP280;57839;51.332;12.410;2023-12-04T00:48:59;100745.91;;;-1.87
70417;BMP280;57839;51.332;12.410;2023-12-04T00:51:25;100745.13;;;-1.87
70417;BMP280;57839;51.332;12.410;2023-12-04T00:53:51;100747.75;;;-1.87
70417;BMP280;57839;51.332;12.410;2023-12-04T00:56:17;100744.06;;;-1.86
70417;BMP280;57839;51.332;12.410;2023-12-04T00:58:45;100738.00;;;-1.87
70417;BMP280;57839;51.332;12.410;2023-12-04T01:01:10;100757.00;;;-1.85
70417;BMP280;57839;51.332;12.410;2023-12-04T01:03:37;100735.69;;;-1.83
70417;BMP280;57839;51.332;12.410;2023-12-04T01:06:03;100726.22;;;-1.84
70417;BMP280;57839;51.332;12.410;2023-12-04T01:08:29;100728.84;;;-1.79
70417;BMP280;57839;51.332;12.410;2023-12-04T01:10:54;100726.22;;;-1.79
70417;BMP280;57839;51.332;12.410;2023-12-04T01:13:20;100725.44;;;-1.80
70417;BMP280;57839;51.332;12.410;2023-12-04T01:15:46;100723.84;;;-1.81
70417;BMP280;57839;51.332;12.410;2023-12-04T01:18:13;100716.22;;;-1.82
70417;BMP280;57839;51.332;12.410;2023-12-04T01:20:39;100718.06;;;-1.78
70417;BMP280;57839;51.332;12.410;2023-12-04T01:23:05;100718.34;;;-1.79
70417;BMP280;57839;51.332;12.410;2023-12-04T01:25:30;100717.00;;;-1.77
70417;BMP280;57839;51.332;12.410;2023-12-04T01:27:56;100708.84;;;-1.75
70417;BMP280;57839;51.332;12.410;2023-12-04T01:30:22;100704.13;;;-1.73
70417;BMP280;57839;51.332;12.410;2023-12-04T01:32:47;100700.97;;;-1.70
70417;BMP280;57839;51.332;12.410;2023-12-04T01:35:13;100704.13;;;-1.68
70417;BMP280;57839;51.332;12.410;2023-12-04T01:37:39;100705.44;;;-1.66
70417;BMP280;57839;51.332;12.410;2023-12-04T01:40:05;100702.25;;;-1.63
70417;BMP280;57839;51.332;12.410;2023-12-04T01:42:32;100691.50;;;-1.61
70417;BMP280;57839;51.332;12.410;2023-12-04T01:44:58;100684.41;;;-1.60
70417;BMP280;57839;51.332;12.410;2023-12-04T01:47:23;100674.63;;;-1.60
70417;BMP280;57839;51.332;12.410;2023-12-04T01:49:50;100671.25;;;-1.60
70417;BMP280;57839;51.332;12.410;2023-12-04T01:52:16;100675.19;;;-1.58
70417;BMP280;57839;51.332;12.410;2023-12-04T01:54:42;100685.69;;;-1.53
70417;BMP280;57839;51.332;12.410;2023-12-04T01:57:09;100682.25;;;-1.53
70417;BMP280;57839;51.332;12.410;2023-12-04T01:59:35;100676.75;;;-1.52
70417;BMP280;57839;51.332;12.410;2023-12-04T02:02:01;100671.72;;;-1.48
70417;BMP280;57839;51.332;12.410;2023-12-04T02:04:27;100669.34;;;-1.45
70417;BMP280;57839;51.332;12.410;2023-12-04T02:06:53;100670.13;;;-1.44
70417;BMP280;57839;51.332;12.410;2023-12-04T02:09:19;100673.03;;;-1.41
70417;BMP280;57839;51.332;12.410;2023-12-04T02:11:45;100667.78;;;-1.41
70417;BMP280;57839;51.332;12.410;2023-12-04T02:14:10;100670.13;;;-1.44
70417;BMP280;57839;51.332;12.410;2023-12-04T02:16:40;100653.31;;;-1.43
70417;BMP280;57839;51.332;12.410;2023-12-04T02:19:11;100649.59;;;-1.42
70417;BMP280;57839;51.332;12.410;2023-12-04T02:21:37;100645.66;;;-1.40
70417;BMP280;57839;51.332;12.410;2023-12-04T02:24:02;100647.22;;;-1.39
70417;BMP280;57839;51.332;12.410;2023-12-04T02:26:32;100643.56;;;-1.38
70417;BMP280;57839;51.332;12.410;2023-12-04T02:29:01;100635.91;;;-1.39
70417;BMP280;57839;51.332;12.410;2023-12-04T02:31:29;100626.19;;;-1.39
70417;BMP280;57839;51.332;12.410;2023-12-04T02:33:55;100631.97;;;-1.37
70417;BMP280;57839;51.332;12.410;2023-12-04T02:36:23;100623.53;;;-1.39
70417;BMP280;57839;51.332;12.410;2023-12-04T02:38:50;100624.09;;;-1.37
70417;BMP280;57839;51.332;12.410;2023-12-04T02:41:15;100626.97;;;-1.38
70417;BMP280;57839;51.332;12.410;2023-12-04T02:43:43;100618.28;;;-1.39
70417;BMP280;57839;51.332;12.410;2023-12-04T02:46:08;100609.59;;;-1.39
70417;BMP280;57839;51.332;12.410;2023-12-04T02:48:34;100621.72;;;-1.38
70417;BMP280;57839;51.332;12.410;2023-12-04T02:51:00;100621.19;;;-1.40
70417;BMP280;57839;51.332;12.410;2023-12-04T02:53:25;100618.31;;;-1.44
70417;BMP280;57839;51.332;12.410;2023-12-04T02:55:51;100627.00;;;-1.43
70417;BMP280;57839;51.332;12.410;2023-12-04T02:58:17;100613.84;;;-1.43
70417;BMP280;57839;51.332;12.410;2023-12-04T03:00:43;100625.16;;;-1.43
70417;BMP280;57839;51.332;12.410;2023-12-04T03:03:08;100621.47;;;-1.47
70417;BMP280;57839;51.332;12.410;2023-12-04T03:05:34;100618.56;;;-1.45
70417;BMP280;57839;51.332;12.410;2023-12-04T03:07:59;100605.16;;;-1.44
70417;BMP280;57839;51.332;12.410;2023-12-04T03:10:25;100614.63;;;-1.43
70417;BMP280;57839;51.332;12.410;2023-12-04T03:12:51;100601.47;;;-1.43
70417;BMP280;57839;51.332;12.410;2023-12-04T03:15:16;100598.84;;;-1.43
70417;BMP280;57839;51.332;12.410;2023-12-04T03:17:42;100603.84;;;-1.41
70417;BMP280;57839;51.332;12.410;2023-12-04T03:20:08;100599.38;;;-1.41
70417;BMP280;57839;51.332;12.410;2023-12-04T03:22:36;100594.09;;;-1.41
70417;BMP280;57839;51.332;12.410;2023-12-04T03:25:01;100593.81;;;-1.39
70417;BMP280;57839;51.332;12.410;2023-12-04T03:27:27;100596.19;;;-1.38
70417;BMP280;57839;51.332;12.410;2023-12-04T03:29:53;100598.31;;;-1.40
70417;BMP280;57839;51.332;12.410;2023-12-04T03:32:19;100598.81;;;-1.38
70417;BMP280;57839;51.332;12.410;2023-12-04T03:34:45;100586.19;;;-1.36
70417;BMP280;57839;51.332;12.410;2023-12-04T03:37:11;100585.66;;;-1.33
70417;BMP280;57839;51.332;12.410;2023-12-04T03:39:37;100586.22;;;-1.31
70417;BMP280;57839;51.332;12.410;2023-12-04T03:42:03;100588.56;;;-1.29
70417;BMP280;57839;51.332;12.410;2023-12-04T03:44:28;100578.53;;;-1.27
70417;BMP280;57839;51.332;12.410;2023-12-04T03:46:54;100578.81;;;-1.29
70417;BMP280;57839;51.332;12.410;2023-12-04T03:49:20;100574.34;;;-1.28
70417;BMP280;57839;51.332;12.410;2023-12-04T03:51:45;100575.13;;;-1.28
70417;BMP280;57839;51.332;12.410;2023-12-04T03:54:11;100565.13;;;-1.26
70417;BMP280;57839;51.332;12.410;2023-12-04T03:56:39;100566.16;;;-1.27
70417;BMP280;57839;51.332;12.410;2023-12-04T03:59:05;100563.81;;;-1.28
70417;BMP280;57839;51.332;12.410;2023-12-04T04:01:30;100559.06;;;-1.26
70417;BMP280;57839;51.332;12.410;2023-12-04T04:03:56;100557.47;;;-1.27
70417;BMP280;57839;51.332;12.410;2023-12-04T04:06:21;100566.41;;;-1.23
70417;BMP280;57839;51.332;12.410;2023-12-04T04:08:47;100561.69;;;-1.26
70417;BMP280;57839;51.332;12.410;2023-12-04T04:11:13;100560.13;;;-1.27
70417;BMP280;57839;51.332;12.410;2023-12-04T04:13:38;100559.31;;;-1.23
70417;BMP280;57839;51.332;12.410;2023-12-04T04:16:04;100560.09;;;-1.22
70417;BMP280;57839;51.332;12.410;2023-12-04T04:18:30;100557.69;;;-1.19
70417;BMP280;57839;51.332;12.410;2023-12-04T04:20:56;100555.84;;;-1.18
70417;BMP280;57839;51.332;12.410;2023-12-04T04:23:21;100553.47;;;-1.15
70417;BMP280;57839;51.332;12.410;2023-12-04T04:25:47;100549.50;;;-1.12
70417;BMP280;57839;51.332;12.410;2023-12-04T04:28:13;100560.28;;;-1.08
70417;BMP280;57839;51.332;12.410;2023-12-04T04:30:38;100546.56;;;-1.05
70417;BMP280;57839;51.332;12.410;2023-12-04T04:33:05;100532.88;;;-1.02
70417;BMP280;57839;51.332;12.410;2023-12-04T04:35:31;100533.13;;;-0.99
70417;BMP280;57839;51.332;12.410;2023-12-04T04:37:57;100535.19;;;-0.96
70417;BMP280;57839;51.332;12.410;2023-12-04T04:40:22;100530.44;;;-0.94
70417;BMP280;57839;51.332;12.410;2023-12-04T04:42:48;100526.22;;;-0.95
70417;BMP280;57839;51.332;12.410;2023-12-04T04:45:13;100532.00;;;-0.93
70417;BMP280;57839;51.332;12.410;2023-12-04T04:47:39;100529.88;;;-0.91
70417;BMP280;57839;51.332;12.410;2023-12-04T04:50:05;100529.06;;;-0.86
70417;BMP280;57839;51.332;12.410;2023-12-04T04:52:31;100520.63;;;-0.83
70417;BMP280;57839;51.332;12.410;2023-12-04T04:54:56;100514.81;;;-0.80
70417;BMP280;57839;51.332;12.410;2023-12-04T04:57:22;100511.09;;;-0.79
70417;BMP280;57839;51.332;12.410;2023-12-04T04:59:47;100506.63;;;-0.79
70417;BMP280;57839;51.332;12.410;2023-12-04T05:02:13;100506.34;;;-0.77
70417;BMP280;57839;51.332;12.410;2023-12-04T05:04:39;100495.03;;;-0.78
70417;BMP280;57839;51.332;12.410;2023-12-04T05:07:04;100496.88;;;-0.78
70417;BMP280;57839;51.332;12.410;2023-12-04T05:09:30;100491.31;;;-0.77
70417;BMP280;57839;51.332;12.410;2023-12-04T05:11:56;100485.25;;;-0.77
70417;BMP280;57839;51.332;12.410;2023-12-04T05:14:21;100485.78;;;-0.75
70417;BMP280;57839;51.332;12.410;2023-12-04T05:16:47;100483.94;;;-0.75
70417;BMP280;57839;51.332;12.410;2023-12-04T05:19:13;100487.34;;;-0.74
70417;BMP280;57839;51.332;12.410;2023-12-04T05:21:38;100478.41;;;-0.73
70417;BMP280;57839;51.332;12.410;2023-12-04T05:24:04;100479.44;;;-0.74
70417;BMP280;57839;51.332;12.410;2023-12-04T05:26:30;100477.34;;;-0.72
70417;BMP280;57839;51.332;12.410;2023-12-04T05:28:56;100479.50;;;-0.79
70417;BMP280;57839;51.332;12.410;2023-12-04T05:31:22;100477.66;;;-0.79
70417;BMP280;57839;51.332;12.410;2023-12-04T05:33:48;100479.50;;;-0.79
70417;BMP280;57839;51.332;12.410;2023-12-04T05:36:13;100482.13;;;-0.79
70417;BMP280;57839;51.332;12.410;2023-12-04T05:38:39;100482.13;;;-0.79
70417;BMP280;57839;51.332;12.410;2023-12-04T05:41:05;100483.72;;;-0.78
70417;BMP280;57839;51.332;12.410;2023-12-04T05:43:30;100481.31;;;-0.75
70417;BMP280;57839;51.332;12.410;2023-12-04T05:45:56;100475.25;;;-0.75
70417;BMP280;57839;51.332;12.410;2023-12-04T05:48:21;100475.81;;;-0.78
70417;BMP280;57839;51.332;12.410;2023-12-04T05:50:47;100473.19;;;-0.78
70417;BMP280;57839;51.332;12.410;2023-12-04T05:53:13;100470.78;;;-0.75
70417;BMP280;57839;51.332;12.410;2023-12-04T05:55:38;100469.72;;;-0.74
70417;BMP280;57839;51.332;12.410;2023-12-04T05:58:04;100459.16;;;-0.74
70417;BMP280;57839;51.332;12.410;2023-12-04T06:00:29;100462.34;;;-0.72
70417;BMP280;57839;51.332;12.410;2023-12-04T06:02:55;100463.09;;;-0.71
70417;BMP280;57839;51.332;12.410;2023-12-04T06:05:20;100458.63;;;-0.71
70417;BMP280;57839;51.332;12.410;2023-12-04T06:07:46;100461.47;;;-0.67
70417;BMP280;57839;51.332;12.410;2023-12-04T06:10:12;100451.75;;;-0.67
70417;BMP280;57839;51.332;12.410;2023-12-04T06:12:37;100449.91;;;-0.71
70417;BMP280;57839;51.332;12.410;2023-12-04T06:15:03;100442.31;;;-0.73
70417;BMP280;57839;51.332;12.410;2023-12-04T06:17:30;100437.31;;;-0.74
70417;BMP280;57839;51.332;12.410;2023-12-04T06:19:55;100437.31;;;-0.74
70417;BMP280;57839;51.332;12.410;2023-12-04T06:22:21;100436.53;;;-0.75
70417;BMP280;57839;51.332;12.410;2023-12-04T06:24:47;100429.47;;;-0.79
70417;BMP280;57839;51.332;12.410;2023-12-04T06:27:16;100432.88;;;-0.79
70417;BMP280;57839;51.332;12.410;2023-12-04T06:29:44;100431.84;;;-0.78
70417;BMP280;57839;51.332;12.410;2023-12-04T06:32:10;100429.97;;;-0.77
70417;BMP280;57839;51.332;12.410;2023-12-04T06:34:36;100429.19;;;-0.78
70417;BMP280;57839;51.332;12.410;2023-12-04T06:37:02;100426.56;;;-0.78
70417;BMP280;57839;51.332;12.410;2023-12-04T06:39:32;100418.94;;;-0.79
70417;BMP280;57839;51.332;12.410;2023-12-04T06:41:59;100420.00;;;-0.80
70417;BMP280;57839;51.332;12.410;2023-12-04T06:44:25;100422.91;;;-0.82
70417;BMP280;57839;51.332;12.410;2023-12-04T06:46:51;100423.97;;;-0.83
70417;BMP280;57839;51.332;12.410;2023-12-04T06:49:18;100415.31;;;-0.83
70417;BMP280;57839;51.332;12.410;2023-12-04T06:51:43;100418.69;;;-0.83
70417;BMP280;57839;51.332;12.410;2023-12-04T06:54:09;100403.69;;;-0.82
70417;BMP280;57839;51.332;12.410;2023-12-04T06:56:36;100411.59;;;-0.82
70417;BMP280;57839;51.332;12.410;2023-12-04T06:59:01;100408.72;;;-0.86
70417;BMP280;57839;51.332;12.410;2023-12-04T07:01:27;100406.38;;;-0.87
70417;BMP280;57839;51.332;12.410;2023-12-04T07:03:53;100409.28;;;-0.89
70417;BMP280;57839;51.332;12.410;2023-12-04T07:06:18;100395.91;;;-0.92
70417;BMP280;57839;51.332;12.410;2023-12-04T07:08:44;100401.94;;;-0.92
70417;BMP280;57839;51.332;12.410;2023-12-04T07:11:09;100400.38;;;-0.93
70417;BMP280;57839;51.332;12.410;2023-12-04T07:13:35;100396.16;;;-0.94
70417;BMP280;57839;51.332;12.410;2023-12-04T07:16:01;100390.66;;;-0.97
70417;BMP280;57839;51.332;12.410;2023-12-04T07:18:28;100395.44;;;-0.99
70417;BMP280;57839;51.332;12.410;2023-12-04T07:20:54;100391.50;;;-1.02
70417;BMP280;57839;51.332;12.410;2023-12-04T07:23:19;100392.81;;;-0.99
70417;BMP280;57839;51.332;12.410;2023-12-04T07:25:45;100397.00;;;-0.98
70417;BMP280;57839;51.332;12.410;2023-12-04T07:28:11;100395.66;;;-0.96
70417;BMP280;57839;51.332;12.410;2023-12-04T07:30:38;100390.34;;;-0.91
70417;BMP280;57839;51.332;12.410;2023-12-04T07:33:04;100399.81;;;-0.90
70417;BMP280;57839;51.332;12.410;2023-12-04T07:35:29;100405.59;;;-0.88
70417;BMP280;57839;51.332;12.410;2023-12-04T07:37:55;100408.47;;;-0.84
70417;BMP280;57839;51.332;12.410;2023-12-04T07:40:20;100409.47;;;-0.80
70417;BMP280;57839;51.332;12.410;2023-12-04T07:42:48;100409.44;;;-0.75
70417;BMP280;57839;51.332;12.410;2023-12-04T07:45:13;100410.16;;;-0.70
70417;BMP280;57839;51.332;12.410;2023-12-04T07:47:41;100411.94;;;-0.65
70417;BMP280;57839;51.332;12.410;2023-12-04T07:50:07;100414.53;;;-0.60
70417;BMP280;57839;51.332;12.410;2023-12-04T07:52:32;100413.97;;;-0.57
70417;BMP280;57839;51.332;12.410;2023-12-04T07:54:58;100409.72;;;-0.53
70417;BMP280;57839;51.332;12.410;2023-12-04T07:57:24;100417.84;;;-0.49
70417;BMP280;57839;51.332;12.410;2023-12-04T07:59:49;100411.50;;;-0.48
70417;BMP280;57839;51.332;12.410;2023-12-04T08:02:15;100416.22;;;-0.45
70417;BMP280;57839;51.332;12.410;2023-12-04T08:04:41;100414.03;;;-0.38
70417;BMP280;57839;51.332;12.410;2023-12-04T08:07:07;100401.06;;;-0.35
70417;BMP280;57839;51.332;12.410;2023-12-04T08:09:33;100402.91;;;-0.30
70417;BMP280;57839;51.332;12.410;2023-12-04T08:11:59;100400.50;;;-0.27
70417;BMP280;57839;51.332;12.410;2023-12-04T08:14:24;100398.38;;;-0.25
70417;BMP280;57839;51.332;12.410;2023-12-04T08:16:50;100401.22;;;-0.21
70417;BMP280;57839;51.332;12.410;2023-12-04T08:19:15;100395.38;;;-0.18
70417;BMP280;57839;51.332;12.410;2023-12-04T08:21:41;100396.66;;;-0.16
70417;BMP280;57839;51.332;12.410;2023-12-04T08:24:07;100397.66;;;-0.12
70417;BMP280;57839;51.332;12.410;2023-12-04T08:26:32;100396.34;;;-0.09
70417;BMP280;57839;51.332;12.410;2023-12-04T08:28:59;100390.50;;;-0.06
70417;BMP280;57839;51.332;12.410;2023-12-04T08:31:24;100386.50;;;-0.04
70417;BMP280;57839;51.332;12.410;2023-12-04T08:33:50;100395.38;;;0.00
70417;BMP280;57839;51.332;12.410;2023-12-04T08:36:15;100389.56;;;0.04
70417;BMP280;57839;51.332;12.410;2023-12-04T08:38:41;100393.47;;;0.06
70417;BMP280;57839;51.332;12.410;2023-12-04T08:41:07;100390.56;;;0.08
70417;BMP280;57839;51.332;12.410;2023-12-04T08:43:32;100383.44;;;0.08
70417;BMP280;57839;51.332;12.410;2023-12-04T08:45:58;100385.50;;;0.11
70417;BMP280;57839;51.332;12.410;2023-12-04T08:48:26;100384.16;;;0.14
70417;BMP280;57839;51.332;12.410;2023-12-04T08:50:51;100389.66;;;0.17
70417;BMP280;57839;51.332;12.410;2023-12-04T08:53:17;100380.38;;;0.20
70417;BMP280;57839;51.332;12.410;2023-12-04T08:55:42;100377.44;;;0.21
70417;BMP280;57839;51.332;12.410;2023-12-04T08:58:09;100382.94;;;0.25
70417;BMP280;57839;51.332;12.410;2023-12-04T09:00:36;100387.16;;;0.26
70417;BMP280;57839;51.332;12.410;2023-12-04T09:03:03;100383.16;;;0.28
70417;BMP280;57839;51.332;12.410;2023-12-04T09:05:29;100379.94;;;0.31
70417;BMP280;57839;51.332;12.410;2023-12-04T09:07:54;100375.63;;;0.35
70417;BMP280;57839;51.332;12.410;2023-12-04T09:10:20;100375.84;;;0.39
70417;BMP280;57839;51.332;12.410;2023-12-04T09:12:45;100366.28;;;0.43
70417;BMP280;57839;51.332;12.410;2023-12-04T09:15:11;100367.78;;;0.49
70417;BMP280;57839;51.332;12.410;2023-12-04T09:17:37;100370.63;;;0.52
70417;BMP280;57839;51.332;12.410;2023-12-04T09:20:03;100370.84;;;0.56
70417;BMP280;57839;51.332;12.410;2023-12-04T09:22:31;100373.66;;;0.59
70417;BMP280;57839;51.332;12.410;2023-12-04T09:24:57;100371.53;;;0.62
70417;BMP280;57839;51.332;12.410;2023-12-04T09:27:22;100372.81;;;0.64
70417;BMP280;57839;51.332;12.410;2023-12-04T09:29:48;100375.94;;;0.66
70417;BMP280;57839;51.332;12.410;2023-12-04T09:32:13;100371.94;;;0.69
70417;BMP280;57839;51.332;12.410;2023-12-04T09:34:39;100367.97;;;0.71
70417;BMP280;57839;51.332;12.410;2023-12-04T09:37:04;100364.22;;;0.72
70417;BMP280;57839;51.332;12.410;2023-12-04T09:39:30;100357.88;;;0.73
70417;BMP280;57839;51.332;12.410;2023-12-04T09:41:56;100357.00;;;0.78
70417;BMP280;57839;51.332;12.410;2023-12-04T09:44:23;100358.00;;;0.82
70417;BMP280;57839;51.332;12.410;2023-12-04T09:46:51;100355.78;;;0.89
70417;BMP280;57839;51.332;12.410;2023-12-04T09:49:17;100349.81;;;0.97
70417;BMP280;57839;51.332;12.410;2023-12-04T09:51:43;100348.34;;;1.04
70417;BMP280;57839;51.332;12.410;2023-12-04T09:54:09;100347.97;;;1.11
70417;BMP280;57839;51.332;12.410;2023-12-04T09:56:36;100343.69;;;1.15
70417;BMP280;57839;51.332;12.410;2023-12-04T09:59:06;100338.78;;;1.22
70417;BMP280;57839;51.332;12.410;2023-12-04T10:01:33;100344.16;;;1.31
70417;BMP280;57839;51.332;12.410;2023-12-04T10:04:01;100338.97;;;1.39
70417;BMP280;57839;51.332;12.410;2023-12-04T10:06:30;100339.84;;;1.48
70417;BMP280;57839;51.332;12.410;2023-12-04T10:08:56;100331.69;;;1.58
70417;BMP280;57839;51.332;12.410;2023-12-04T10:11:24;100323.44;;;1.73
70417;BMP280;57839;51.332;12.410;2023-12-04T10:13:50;100315.22;;;1.97
70417;BMP280;57839;51.332;12.410;2023-12-04T10:16:34;100320.63;;;2.28
70417;BMP280;57839;51.332;12.410;2023-12-04T10:19:23;100323.41;;;2.54
70417;BMP280;57839;51.332;12.410;2023-12-04T10:21:51;100314.75;;;2.70
70417;BMP280;57839;51.332;12.410;2023-12-04T10:24:49;100309.84;;;2.86
70417;BMP280;57839;51.332;12.410;2023-12-04T10:27:14;100305.19;;;2.91
70417;BMP280;57839;51.332;12.410;2023-12-04T10:29:49;100296.78;;;2.98
70417;BMP280;57839;51.332;12.410;2023-12-04T10:32:20;100289.97;;;3.06
70417;BMP280;57839;51.332;12.410;2023-12-04T10:34:47;100277.81;;;3.13
70417;BMP280;57839;51.332;12.410;2023-12-04T10:37:13;100275.63;;;3.15
70417;BMP280;57839;51.332;12.410;2023-12-04T10:39:49;100273.13;;;3.10
70417;BMP280;57839;51.332;12.410;2023-12-04T10:42:28;100261.72;;;3.01
70417;BMP280;57839;51.332;12.410;2023-12-04T10:44:56;100257.66;;;2.95
70417;BMP280;57839;51.332;12.410;2023-12-04T10:47:22;100238.03;;;2.87
70417;BMP280;57839;51.332;12.410;2023-12-04T10:49:52;100236.00;;;2.84
70417;BMP280;57839;51.332;12.410;2023-12-04T10:52:18;100241.13;;;2.81
70417;BMP280;57839;51.332;12.410;2023-12-04T10:54:50;100234.06;;;2.76
70417;BMP280;57839;51.332;12.410;2023-12-04T10:57:39;100228.13;;;2.71
70417;BMP280;57839;51.332;12.410;2023-12-04T11:00:06;100218.16;;;2.68
70417;BMP280;57839;51.332;12.410;2023-12-04T11:02:34;100218.16;;;2.68
70417;BMP280;57839;51.332;12.410;2023-12-04T11:05:07;100215.22;;;2.69
70417;BMP280;57839;51.332;12.410;2023-12-04T11:07:44;100215.69;;;2.71
70417;BMP280;57839;51.332;12.410;2023-12-04T11:10:11;100215.06;;;2.74
70417;BMP280;57839;51.332;12.410;2023-12-04T11:12:40;100211.03;;;2.77
70417;BMP280;57839;51.332;12.410;2023-12-04T11:15:14;100218.34;;;2.80
70417;BMP280;57839;51.332;12.410;2023-12-04T11:17:43;100213.69;;;2.85
70417;BMP280;57839;51.332;12.410;2023-12-04T11:20:17;100216.50;;;2.89
70417;BMP280;57839;51.332;12.410;2023-12-04T11:22:45;100207.31;;;2.86
70417;BMP280;57839;51.332;12.410;2023-12-04T11:25:12;100200.44;;;2.85
70417;BMP280;57839;51.332;12.410;2023-12-04T11:27:39;100188.31;;;2.84
70417;BMP280;57839;51.332;12.410;2023-12-04T11:30:08;100195.94;;;2.86
70417;BMP280;57839;51.332;12.410;2023-12-04T11:32:54;100195.47;;;2.84
70417;BMP280;57839;51.332;12.410;2023-12-04T11:35:25;100192.03;;;2.83
70417;BMP280;57839;51.332;12.410;2023-12-04T11:37:52;100179.88;;;2.82
70417;BMP280;57839;51.332;12.410;2023-12-04T11:40:18;100180.97;;;2.81
70417;BMP280;57839;51.332;12.410;2023-12-04T11:42:44;100185.03;;;2.79
70417;BMP280;57839;51.332;12.410;2023-12-04T11:45:09;100181.28;;;2.80
70417;BMP280;57839;51.332;12.410;2023-12-04T11:47:56;100177.06;;;2.79
70417;BMP280;57839;51.332;12.410;2023-12-04T11:50:24;100175.19;;;2.79
70417;BMP280;57839;51.332;12.410;2023-12-04T11:52:50;100181.59;;;2.78
70417;BMP280;57839;51.332;12.410;2023-12-04T11:55:17;100171.00;;;2.78
70417;BMP280;57839;51.332;12.410;2023-12-04T11:57:45;100173.66;;;2.78
70417;BMP280;57839;51.332;12.410;2023-12-04T12:05:22;100163.16;;;2.73
70417;BMP280;57839;51.332;12.410;2023-12-04T12:07:48;100156.00;;;2.74
70417;BMP280;57839;51.332;12.410;2023-12-04T12:10:15;100160.84;;;2.72
70417;BMP280;57839;51.332;12.410;2023-12-04T12:12:42;100154.75;;;2.71
70417;BMP280;57839;51.332;12.410;2023-12-04T12:15:09;100161.13;;;2.70
70417;BMP280;57839;51.332;12.410;2023-12-04T12:17:35;100153.97;;;2.71
70417;BMP280;57839;51.332;12.410;2023-12-04T12:20:02;100149.47;;;2.71
70417;BMP280;57839;51.332;12.410;2023-12-04T12:22:36;100139.94;;;2.70
70417;BMP280;57839;51.332;12.410;2023-12-04T12:25:04;100144.78;;;2.68
70417;BMP280;57839;51.332;12.410;2023-12-04T12:27:31;100130.28;;;2.66
70417;BMP280;57839;51.332;12.410;2023-12-04T12:29:57;100123.75;;;2.63
70417;BMP280;57839;51.332;12.410;2023-12-04T12:32:23;100122.19;;;2.62
70417;BMP280;57839;51.332;12.410;2023-12-04T12:34:49;100116.44;;;2.60
70417;BMP280;57839;51.332;12.410;2023-12-04T12:37:15;100116.00;;;2.58
70417;BMP280;57839;51.332;12.410;2023-12-04T12:39:41;100103.38;;;2.55
70417;BMP280;57839;51.332;12.410;2023-12-04T12:42:06;100096.50;;;2.54
70417;BMP280;57839;51.332;12.410;2023-12-04T12:44:40;100107.56;;;2.56
70417;BMP280;57839;51.332;12.410;2023-12-04T12:47:06;100093.53;;;2.56
70417;BMP280;57839;51.332;12.410;2023-12-04T12:49:32;100097.13;;;2.60
70417;BMP280;57839;51.332;12.410;2023-12-04T12:52:00;100086.22;;;2.61
70417;BMP280;57839;51.332;12.410;2023-12-04T12:54:26;100084.03;;;2.63
70417;BMP280;57839;51.332;12.410;2023-12-04T12:56:51;100084.81;;;2.64
70417;BMP280;57839;51.332;12.410;2023-12-04T12:59:17;100080.59;;;2.63
70417;BMP280;57839;51.332;12.410;2023-12-04T13:01:48;100079.53;;;2.64
70417;BMP280;57839;51.332;12.410;2023-12-04T13:04:14;100069.69;;;2.64
70417;BMP280;57839;51.332;12.410;2023-12-04T13:06:41;100061.44;;;2.66
70417;BMP280;57839;51.332;12.410;2023-12-04T13:09:06;100071.72;;;2.67
70417;BMP280;57839;51.332;12.410;2023-12-04T13:11:33;100063.78;;;2.67
70417;BMP280;57839;51.332;12.410;2023-12-04T13:13:59;100064.09;;;2.66
70417;BMP280;57839;51.332;12.410;2023-12-04T13:16:24;100061.75;;;2.64
70417;BMP280;57839;51.332;12.410;2023-12-04T13:18:50;100061.28;;;2.62
70417;BMP280;57839;51.332;12.410;2023-12-04T13:21:16;100058.63;;;2.62
70417;BMP280;57839;51.332;12.410;2023-12-04T13:23:42;100049.94;;;2.62
70417;BMP280;57839;51.332;12.410;2023-12-04T13:26:10;100047.63;;;2.60
70417;BMP280;57839;51.332;12.410;2023-12-04T13:28:37;100035.78;;;2.58
70417;BMP280;57839;51.332;12.410;2023-12-04T13:31:06;100034.22;;;2.57
70417;BMP280;57839;51.332;12.410;2023-12-04T13:33:31;100020.50;;;2.55
70417;BMP280;57839;51.332;12.410;2023-12-04T13:35:57;100017.06;;;2.54
70417;BMP280;57839;51.332;12.410;2023-12-04T13:38:23;100012.88;;;2.53
70417;BMP280;57839;51.332;12.410;2023-12-04T13:40:49;100011.78;;;2.54
70417;BMP280;57839;51.332;12.410;2023-12-04T13:43:27;100002.59;;;2.52
70417;BMP280;57839;51.332;12.410;2023-12-04T13:46:11;100006.78;;;2.53
70417;BMP280;57839;51.332;12.410;2023-12-04T13:48:37;99994.66;;;2.52
70417;BMP280;57839;51.332;12.410;2023-12-04T13:51:10;99996.81;;;2.50